Time;durP1;ratioP1;P1;durP2;ratioP2;P2;SDS_P1;SDS_P2;PMS_P1;PMS_P2;Temp;Humidity;BMP_temperature;BMP_pressure;BME280_temperature;BME280_humidity;BME280_pressure;Samples;Min_cycle;Max_cycle;Signal;HPM_P1;HPM_P2
2022/11/29 00:01:45;;;;;;;0.90;0.90;;;;;;;;;;5072076;28;20228;-90
2022/11/29 00:04:12;;;;;;;1.40;1.30;;;;;;;;;;5074369;28;20211;-89
2022/11/29 00:06:39;;;;;;;1.07;1.00;;;;;;;;;;5056507;28;20216;-90
2022/11/29 00:09:11;;;;;;;0.87;0.87;;;;;;;;;;5054291;28;20219;-90
2022/11/29 00:14:24;;;;;;;0.57;0.57;;;;;;;;;;5063711;28;20335;-89
2022/11/29 00:16:52;;;;;;;0.70;0.70;;;;;;;;;;5071224;28;20220;-90
2022/11/29 00:19:19;;;;;;;2.20;0.50;;;;;;;;;;5064706;28;20225;-88
2022/11/29 00:21:46;;;;;;;1.57;1.00;;;;;;;;;;5052780;28;20206;-89
2022/11/29 00:24:15;;;;;;;0.67;0.67;;;;;;;;;;5060210;28;20599;-89
2022/11/29 00:26:42;;;;;;;0.47;0.47;;;;;;;;;;5073564;28;20221;-88
2022/11/29 00:29:10;;;;;;;0.97;0.90;;;;;;;;;;5059458;28;20243;-88
2022/11/29 00:31:37;;;;;;;1.27;0.90;;;;;;;;;;5073494;28;20225;-88
2022/11/29 00:34:05;;;;;;;0.97;0.90;;;;;;;;;;5072738;28;20220;-88
2022/11/29 00:36:33;;;;;;;1.33;1.00;;;;;;;;;;5073647;28;20216;-88
2022/11/29 00:39:00;;;;;;;1.17;1.07;;;;;;;;;;5059076;28;20217;-88
2022/11/29 00:41:29;;;;;;;0.57;0.57;;;;;;;;;;5063266;28;20214;-88
2022/11/29 00:43:56;;;;;;;0.40;0.40;;;;;;;;;;5068140;28;20993;-88
2022/11/29 00:46:24;;;;;;;0.50;0.50;;;;;;;;;;5064426;28;20673;-88
2022/11/29 00:48:51;;;;;;;2.53;2.33;;;;;;;;;;5066482;28;20213;-88
2022/11/29 00:51:18;;;;;;;4.80;4.30;;;;;;;;;;5073285;28;20239;-89
2022/11/29 00:53:45;;;;;;;11.77;10.57;;;;;;;;;;5093390;28;20209;-89
2022/11/29 00:56:12;;;;;;;2.37;2.17;;;;;;;;;;5069788;28;20209;-89
2022/11/29 00:58:42;;;;;;;12.77;9.33;;;;;;;;;;5059627;28;20684;-89
2022/11/29 01:01:09;;;;;;;21.27;15.30;;;;;;;;;;5073420;28;20216;-89
2022/11/29 01:03:37;;;;;;;2.93;1.73;;;;;;;;;;5073643;28;20213;-89
2022/11/29 01:06:05;;;;;;;1.30;1.20;;;;;;;;;;5060564;28;20212;-89
2022/11/29 01:08:32;;;;;;;5.73;2.57;;;;;;;;;;5071520;28;20691;-91
2022/11/29 01:11:04;;;;;;;2.63;2.07;;;;;;;;;;5073317;28;20294;-91
2022/11/29 01:13:31;;;;;;;1.77;1.43;;;;;;;;;;5065419;28;20197;-88
2022/11/29 01:16:00;;;;;;;1.30;1.13;;;;;;;;;;5063382;28;20275;-92
2022/11/29 01:18:29;;;;;;;0.60;0.60;;;;;;;;;;5069157;28;20213;-92
2022/11/29 01:20:57;;;;;;;1.30;0.90;;;;;;;;;;5072877;28;20266;-92
2022/11/29 01:23:24;;;;;;;0.57;0.57;;;;;;;;;;5086839;28;20634;-91
2022/11/29 01:26:00;;;;;;;0.83;0.70;;;;;;;;;;5105700;28;20209;-91
2022/11/29 01:28:27;;;;;;;0.90;0.90;;;;;;;;;;5072827;28;20215;-92
2022/11/29 01:30:55;;;;;;;0.40;0.40;;;;;;;;;;5072676;28;20289;-91
2022/11/29 01:33:24;;;;;;;0.70;0.70;;;;;;;;;;5071709;28;20237;-91
2022/11/29 01:35:52;;;;;;;0.80;0.80;;;;;;;;;;5072857;28;20674;-90
2022/11/29 01:38:20;;;;;;;0.80;0.80;;;;;;;;;;5072514;28;20221;-91
2022/11/29 01:40:57;;;;;;;0.47;0.40;;;;;;;;;;5070460;28;20558;-91
2022/11/29 01:43:24;;;;;;;0.50;0.50;;;;;;;;;;5068611;28;20212;-91
2022/11/29 01:45:51;;;;;;;0.17;0.17;;;;;;;;;;5058015;28;20209;-90
2022/11/29 01:48:19;;;;;;;0.40;0.40;;;;;;;;;;5071487;28;20213;-90
2022/11/29 01:50:47;;;;;;;4.50;2.37;;;;;;;;;;5053976;28;20225;-91
2022/11/29 01:53:15;;;;;;;1.13;0.80;;;;;;;;;;5066952;28;20266;-92
2022/11/29 01:55:48;;;;;;;2.17;1.23;;;;;;;;;;5061682;28;20642;-93
2022/11/29 01:58:16;;;;;;;1.20;0.93;;;;;;;;;;5062791;28;20239;-93
2022/11/29 02:00:43;;;;;;;1.00;1.00;;;;;;;;;;5071790;28;20205;-91
2022/11/29 02:03:12;;;;;;;0.30;0.30;;;;;;;;;;5071224;28;20235;-92
2022/11/29 02:05:41;;;;;;;0.30;0.30;;;;;;;;;;5096293;28;20209;-93
2022/11/29 02:08:11;;;;;;;0.23;0.23;;;;;;;;;;5066318;28;20213;-92
2022/11/29 02:10:59;;;;;;;0.37;0.37;;;;;;;;;;5073049;28;20209;-90
2022/11/29 02:13:34;;;;;;;0.40;0.40;;;;;;;;;;5072289;28;20223;-93
2022/11/29 02:16:06;;;;;;;0.37;0.37;;;;;;;;;;5072162;28;20207;-94
2022/11/29 02:18:41;;;;;;;2.23;1.73;;;;;;;;;;5071967;28;20821;-94
2022/11/29 02:21:40;;;;;;;0.60;0.60;;;;;;;;;;5062299;28;20255;-95
2022/11/29 02:24:48;;;;;;;0.63;0.63;;;;;;;;;;5058797;28;20760;-93
2022/11/29 02:27:50;;;;;;;0.70;0.70;;;;;;;;;;5053049;28;20213;-93
2022/11/29 02:30:21;;;;;;;4.33;3.33;;;;;;;;;;5067419;28;20697;-94
2022/11/29 02:33:12;;;;;;;3.03;1.47;;;;;;;;;;5072300;28;20661;-92
2022/11/29 02:35:59;;;;;;;0.30;0.30;;;;;;;;;;5066782;28;20197;-91
2022/11/29 02:38:39;;;;;;;0.53;0.53;;;;;;;;;;5064549;28;20680;-92
2022/11/29 02:41:18;;;;;;;0.50;0.43;;;;;;;;;;5065860;28;20691;-92
2022/11/29 02:44:07;;;;;;;0.93;0.93;;;;;;;;;;5066045;28;20282;-92
2022/11/29 02:46:44;;;;;;;0.40;0.40;;;;;;;;;;5061956;28;20204;-93
2022/11/29 02:49:19;;;;;;;1.10;1.00;;;;;;;;;;5069228;28;20205;-92
2022/11/29 02:51:51;;;;;;;2.33;2.13;;;;;;;;;;5062476;28;20254;-93
2022/11/29 02:54:23;;;;;;;1.40;1.30;;;;;;;;;;5071725;28;20209;-92
2022/11/29 02:56:55;;;;;;;0.77;0.77;;;;;;;;;;5067723;28;20217;-91
2022/11/29 02:59:36;;;;;;;0.60;0.60;;;;;;;;;;5072442;28;20204;-90
2022/11/29 03:02:09;;;;;;;0.40;0.40;;;;;;;;;;5061989;28;20216;-95
2022/11/29 03:04:53;;;;;;;14.03;7.03;;;;;;;;;;5077555;28;20201;-95
2022/11/29 03:07:25;;;;;;;3.03;1.60;;;;;;;;;;5063217;28;20205;-96
2022/11/29 03:09:56;;;;;;;1.77;1.40;;;;;;;;;;5059756;28;20692;-94
2022/11/29 03:12:31;;;;;;;6.50;4.63;;;;;;;;;;5055397;28;20279;-95
2022/11/29 03:15:03;;;;;;;11.07;7.63;;;;;;;;;;5055594;28;20292;-95
2022/11/29 03:17:43;;;;;;;3.93;3.20;;;;;;;;;;5054768;28;20209;-95
2022/11/29 03:20:26;;;;;;;2.57;2.37;;;;;;;;;;5062567;28;20367;-96
2022/11/29 03:23:15;;;;;;;3.97;3.70;;;;;;;;;;5072620;28;20697;-96
2022/11/29 03:25:44;;;;;;;2.27;1.47;;;;;;;;;;5070189;28;20221;-93
2022/11/29 03:28:15;;;;;;;0.50;0.50;;;;;;;;;;5065016;28;20216;-96
2022/11/29 03:30:49;;;;;;;0.30;0.30;;;;;;;;;;5070105;28;20611;-95
2022/11/29 03:33:21;;;;;;;2.73;0.70;;;;;;;;;;5065542;28;20237;-96
2022/11/29 03:35:54;;;;;;;1.67;1.57;;;;;;;;;;5061301;28;20206;-96
2022/11/29 03:38:27;;;;;;;3.17;2.37;;;;;;;;;;5056710;28;20236;-95
2022/11/29 03:40:58;;;;;;;5.67;4.70;;;;;;;;;;5074800;28;20236;-96
2022/11/29 03:43:32;;;;;;;5.47;5.03;;;;;;;;;;5064546;28;20202;-96
2022/11/29 03:46:03;;;;;;;2.37;2.17;;;;;;;;;;5061628;28;20213;-96
2022/11/29 03:48:33;;;;;;;0.60;0.60;;;;;;;;;;5066205;28;20201;-95
2022/11/29 03:51:05;;;;;;;7.27;4.57;;;;;;;;;;5059433;28;20209;-96
2022/11/29 03:53:37;;;;;;;8.23;4.80;;;;;;;;;;5071696;28;20208;-96
2022/11/29 03:56:29;;;;;;;0.83;0.83;;;;;;;;;;5078469;28;20584;-95
2022/11/29 03:59:03;;;;;;;0.93;0.83;;;;;;;;;;5065585;28;20209;-96
2022/11/29 04:01:55;;;;;;;3.40;2.30;;;;;;;;;;5061089;28;20205;-95
2022/11/29 04:05:03;;;;;;;1.17;0.70;;;;;;;;;;5073195;28;20671;-95
2022/11/29 04:07:48;;;;;;;4.83;3.60;;;;;;;;;;5061569;28;20205;-96
2022/11/29 04:10:24;;;;;;;2.07;1.90;;;;;;;;;;5082517;28;20208;-96
2022/11/29 04:16:07;;;;;;;1.40;1.30;;;;;;;;;;6074997;22;20177;-95
2022/11/29 04:18:48;;;;;;;1.40;1.30;;;;;;;;;;5600146;22;20237;-96
2022/11/29 04:21:31;;;;;;;1.70;1.60;;;;;;;;;;5055924;28;20209;-96
2022/11/29 04:32:15;;;;;;;1.23;1.13;;;;;;;;;;5152204;22;20247;-94
2022/11/29 04:40:03;;;;;;;21.83;9.37;;;;;;;;;;5295144;22;20240;-95
2022/11/29 04:43:01;;;;;;;10.73;5.73;;;;;;;;;;5068572;28;20204;-95
2022/11/29 04:49:15;;;;;;;11.07;8.30;;;;;;;;;;5074624;28;20275;-94
2022/11/29 04:52:17;;;;;;;3.17;2.30;;;;;;;;;;5075087;28;20338;-94
2022/11/29 04:58:44;;;;;;;5.90;5.30;;;;;;;;;;5074582;28;20286;-92
2022/11/29 05:04:51;;;;;;;11.37;9.90;;;;;;;;;;5074400;28;20177;-94
2022/11/29 05:07:27;;;;;;;2.17;1.97;;;;;;;;;;5074237;28;20209;-94
2022/11/29 05:10:00;;;;;;;2.20;1.10;;;;;;;;;;5060705;28;20213;-92
2022/11/29 05:12:34;;;;;;;1.77;1.60;;;;;;;;;;5064974;28;20243;-96
2022/11/29 05:15:27;;;;;;;2.67;2.00;;;;;;;;;;5073992;28;20229;-95
2022/11/29 05:18:06;;;;;;;0.90;0.90;;;;;;;;;;5066033;28;20209;-91
2022/11/29 05:20:41;;;;;;;2.60;2.40;;;;;;;;;;5066902;28;20755;-95
2022/11/29 05:23:21;;;;;;;2.37;2.17;;;;;;;;;;5060607;28;20205;-93
2022/11/29 05:25:53;;;;;;;7.67;6.93;;;;;;;;;;5072579;28;20208;-92
2022/11/29 05:28:30;;;;;;;11.40;8.77;;;;;;;;;;5053124;28;20684;-93
2022/11/29 05:31:11;;;;;;;12.53;10.73;;;;;;;;;;5068663;28;20212;-94
2022/11/29 05:34:05;;;;;;;15.80;14.20;;;;;;;;;;5071808;28;20270;-93
2022/11/29 05:36:39;;;;;;;5.13;4.63;;;;;;;;;;5042517;28;20669;-93
2022/11/29 05:39:19;;;;;;;6.80;6.13;;;;;;;;;;5065273;28;20200;-93
2022/11/29 05:42:02;;;;;;;13.27;10.37;;;;;;;;;;5072112;28;20205;-92
2022/11/29 05:44:33;;;;;;;2.57;2.37;;;;;;;;;;5071233;28;20208;-93
2022/11/29 05:47:02;;;;;;;8.17;6.87;;;;;;;;;;5052937;28;20214;-93
2022/11/29 05:49:38;;;;;;;7.83;7.03;;;;;;;;;;5066878;28;20212;-92
2022/11/29 05:52:24;;;;;;;8.77;7.97;;;;;;;;;;5065061;28;20236;-92
2022/11/29 05:55:03;;;;;;;0.90;0.87;;;;;;;;;;5066131;28;20288;-92
2022/11/29 05:57:37;;;;;;;5.37;4.77;;;;;;;;;;5052682;28;20205;-93
2022/11/29 06:00:06;;;;;;;9.53;8.53;;;;;;;;;;5052312;28;20212;-92
2022/11/29 06:02:44;;;;;;;6.43;5.77;;;;;;;;;;5063752;28;20291;-92
2022/11/29 06:05:16;;;;;;;4.30;3.90;;;;;;;;;;5072854;28;20205;-91
2022/11/29 06:07:47;;;;;;;6.27;3.80;;;;;;;;;;5072738;28;20209;-92
2022/11/29 06:10:16;;;;;;;3.00;2.80;;;;;;;;;;5058189;28;20300;-93
2022/11/29 06:12:49;;;;;;;1.97;1.77;;;;;;;;;;5072067;28;20271;-94
2022/11/29 06:15:46;;;;;;;1.33;1.27;;;;;;;;;;5068255;28;20198;-92
2022/11/29 06:18:32;;;;;;;4.40;4.00;;;;;;;;;;5053815;28;20228;-93
2022/11/29 06:21:09;;;;;;;1.90;1.80;;;;;;;;;;5072558;28;20209;-92
2022/11/29 06:23:49;;;;;;;3.97;3.57;;;;;;;;;;5055497;28;20246;-91
2022/11/29 06:26:43;;;;;;;2.20;2.00;;;;;;;;;;5052450;28;20657;-92
2022/11/29 06:29:23;;;;;;;3.73;2.77;;;;;;;;;;5056214;28;20288;-93
2022/11/29 06:31:53;;;;;;;20.03;15.23;;;;;;;;;;5071738;28;20208;-93
2022/11/29 06:34:26;;;;;;;17.27;11.57;;;;;;;;;;5072345;28;20267;-93
2022/11/29 06:36:54;;;;;;;17.90;12.93;;;;;;;;;;5072866;28;20231;-92
2022/11/29 06:39:23;;;;;;;5.73;4.30;;;;;;;;;;5058349;28;20213;-92
2022/11/29 06:41:50;;;;;;;4.50;4.00;;;;;;;;;;5059336;28;20214;-92
2022/11/29 06:44:17;;;;;;;3.70;3.33;;;;;;;;;;5070556;28;20753;-93
2022/11/29 06:46:47;;;;;;;2.20;2.00;;;;;;;;;;5076529;28;20213;-93
2022/11/29 06:49:19;;;;;;;3.77;3.43;;;;;;;;;;5062497;28;20579;-93
2022/11/29 06:51:55;;;;;;;1.40;1.30;;;;;;;;;;5065773;28;20575;-93
2022/11/29 06:54:36;;;;;;;10.87;7.43;;;;;;;;;;5075801;28;20197;-93
2022/11/29 06:57:09;;;;;;;9.57;6.13;;;;;;;;;;5075383;28;20205;-92
2022/11/29 06:59:48;;;;;;;4.13;3.70;;;;;;;;;;5075242;28;20226;-93
2022/11/29 07:02:27;;;;;;;14.40;10.77;;;;;;;;;;5064558;28;20254;-92
2022/11/29 07:05:07;;;;;;;5.20;4.70;;;;;;;;;;5075828;28;20204;-92
2022/11/29 07:07:34;;;;;;;3.73;3.30;;;;;;;;;;5076029;28;20214;-93
2022/11/29 07:10:05;;;;;;;3.47;3.20;;;;;;;;;;5076072;28;20216;-94
2022/11/29 07:12:32;;;;;;;4.37;3.50;;;;;;;;;;5075444;28;20233;-93
2022/11/29 07:14:59;;;;;;;6.17;4.80;;;;;;;;;;5075490;28;20744;-92
2022/11/29 07:17:31;;;;;;;5.07;3.47;;;;;;;;;;5075371;28;20679;-93
2022/11/29 07:20:04;;;;;;;3.23;2.90;;;;;;;;;;5061329;28;20213;-92
2022/11/29 07:22:58;;;;;;;2.43;2.23;;;;;;;;;;5075654;28;20201;-92
2022/11/29 07:25:33;;;;;;;11.63;6.63;;;;;;;;;;5075729;28;20205;-91
2022/11/29 07:28:07;;;;;;;16.77;12.43;;;;;;;;;;5075396;28;20207;-92
2022/11/29 07:30:39;;;;;;;30.43;17.60;;;;;;;;;;5061116;28;20204;-92
2022/11/29 07:33:11;;;;;;;5.17;4.37;;;;;;;;;;5064296;28;20221;-91
2022/11/29 07:35:44;;;;;;;4.27;3.87;;;;;;;;;;5055091;28;20217;-93
2022/11/29 07:38:17;;;;;;;2.27;2.07;;;;;;;;;;5058765;28;20220;-92
2022/11/29 07:40:52;;;;;;;4.73;3.73;;;;;;;;;;5067000;28;20233;-92
2022/11/29 07:43:26;;;;;;;11.30;10.20;;;;;;;;;;5075282;28;20220;-92
2022/11/29 07:45:54;;;;;;;2.73;2.53;;;;;;;;;;5075101;28;20212;-92
2022/11/29 07:48:21;;;;;;;5.30;4.80;;;;;;;;;;5075012;28;20686;-94
2022/11/29 07:50:48;;;;;;;13.67;11.50;;;;;;;;;;5060695;28;20209;-92
2022/11/29 07:53:16;;;;;;;3.30;3.00;;;;;;;;;;5074386;28;20271;-91
2022/11/29 07:55:43;;;;;;;14.17;12.77;;;;;;;;;;5073487;28;20296;-91
2022/11/29 07:58:12;;;;;;;25.73;19.67;;;;;;;;;;5058769;28;20225;-92
2022/11/29 08:00:40;;;;;;;5.23;4.30;;;;;;;;;;5074725;28;20209;-91
2022/11/29 08:03:08;;;;;;;1.80;1.70;;;;;;;;;;5072783;28;20205;-91
2022/11/29 08:05:35;;;;;;;1.67;1.57;;;;;;;;;;5062649;28;20205;-92
2022/11/29 08:08:01;;;;;;;0.90;0.90;;;;;;;;;;5074606;28;20258;-92
2022/11/29 08:10:28;;;;;;;2.30;2.10;;;;;;;;;;5074686;28;20213;-92
2022/11/29 08:12:55;;;;;;;1.70;1.57;;;;;;;;;;5074759;28;20307;-92
2022/11/29 08:15:25;;;;;;;0.93;0.83;;;;;;;;;;5074496;28;20208;-93
2022/11/29 08:17:53;;;;;;;1.73;1.00;;;;;;;;;;5075634;28;20252;-94
2022/11/29 08:20:19;;;;;;;1.43;1.33;;;;;;;;;;5075484;28;20249;-93
2022/11/29 08:22:53;;;;;;;4.10;3.40;;;;;;;;;;5065170;28;20692;-92
2022/11/29 08:25:20;;;;;;;3.43;3.13;;;;;;;;;;5071701;28;20217;-91
2022/11/29 08:27:47;;;;;;;1.27;1.17;;;;;;;;;;5074720;28;20217;-92
2022/11/29 08:30:17;;;;;;;1.63;0.87;;;;;;;;;;5074358;28;20259;-93
2022/11/29 08:32:45;;;;;;;0.70;0.70;;;;;;;;;;5073943;28;20225;-92
2022/11/29 08:35:12;;;;;;;1.47;1.37;;;;;;;;;;5074028;28;20262;-91
2022/11/29 08:37:39;;;;;;;1.17;1.17;;;;;;;;;;5074410;28;20236;-91
2022/11/29 08:40:07;;;;;;;2.90;1.93;;;;;;;;;;5061338;28;20565;-91
2022/11/29 08:42:34;;;;;;;28.60;16.43;;;;;;;;;;5054111;28;20259;-91
2022/11/29 08:45:01;;;;;;;13.77;8.47;;;;;;;;;;5064735;28;20259;-92
2022/11/29 08:47:36;;;;;;;4.60;3.33;;;;;;;;;;5073504;28;20647;-92
2022/11/29 08:50:08;;;;;;;3.30;2.70;;;;;;;;;;5074178;28;20212;-92
2022/11/29 08:55:23;;;;;;;2.70;1.67;;;;;;;;;;5073682;28;20208;-92
2022/11/29 08:57:50;;;;;;;1.27;1.17;;;;;;;;;;5073200;28;20773;-91
2022/11/29 09:00:18;;;;;;;1.83;1.57;;;;;;;;;;5073782;28;20233;-92
2022/11/29 09:02:45;;;;;;;7.13;4.80;;;;;;;;;;5073386;28;20209;-91
2022/11/29 09:05:13;;;;;;;2.57;1.97;;;;;;;;;;5068458;28;20680;-91
2022/11/29 09:07:40;;;;;;;2.47;1.90;;;;;;;;;;5052816;28;20562;-91
2022/11/29 09:10:09;;;;;;;2.60;2.40;;;;;;;;;;5053260;28;20214;-92
2022/11/29 09:12:36;;;;;;;2.10;1.90;;;;;;;;;;5063508;28;20217;-92
2022/11/29 09:15:03;;;;;;;4.20;3.43;;;;;;;;;;5073198;28;20279;-92
2022/11/29 09:17:30;;;;;;;1.87;1.70;;;;;;;;;;5073249;28;20220;-91
2022/11/29 09:19:57;;;;;;;3.97;3.57;;;;;;;;;;5073555;28;20213;-91
2022/11/29 09:22:25;;;;;;;11.10;8.50;;;;;;;;;;5067076;28;20210;-91
2022/11/29 09:24:52;;;;;;;9.00;6.40;;;;;;;;;;5053439;28;20201;-91
2022/11/29 09:27:19;;;;;;;3.17;2.77;;;;;;;;;;5057813;28;20213;-90
2022/11/29 09:29:46;;;;;;;4.23;2.50;;;;;;;;;;5062168;28;20632;-91
2022/11/29 09:32:13;;;;;;;4.80;3.57;;;;;;;;;;5070221;28;20205;-91
2022/11/29 09:34:40;;;;;;;5.10;3.27;;;;;;;;;;5072634;28;20224;-92
2022/11/29 09:37:08;;;;;;;3.53;3.03;;;;;;;;;;5072850;28;20212;-92
2022/11/29 09:39:37;;;;;;;4.23;3.70;;;;;;;;;;5072447;28;20233;-91
2022/11/29 09:42:30;;;;;;;1.30;1.20;;;;;;;;;;5072744;28;20207;-92
2022/11/29 09:45:03;;;;;;;2.73;2.20;;;;;;;;;;5072552;28;20209;-92
2022/11/29 09:47:57;;;;;;;12.40;11.30;;;;;;;;;;5072811;28;20227;-91
2022/11/29 09:50:28;;;;;;;31.13;20.20;;;;;;;;;;5049843;28;20213;-92
2022/11/29 09:53:04;;;;;;;9.60;6.03;;;;;;;;;;5073039;28;20763;-91
2022/11/29 09:55:52;;;;;;;8.40;7.03;;;;;;;;;;5072648;28;20587;-91
2022/11/29 09:58:21;;;;;;;3.10;2.80;;;;;;;;;;5072588;28;20579;-92
2022/11/29 10:00:50;;;;;;;4.87;3.13;;;;;;;;;;5061408;28;20210;-92
2022/11/29 10:03:22;;;;;;;11.27;6.20;;;;;;;;;;5055696;28;20205;-92
2022/11/29 10:05:51;;;;;;;5.90;3.13;;;;;;;;;;5072275;28;20197;-91
2022/11/29 10:08:24;;;;;;;2.93;2.43;;;;;;;;;;5072690;28;20197;-92
2022/11/29 10:10:55;;;;;;;4.17;3.50;;;;;;;;;;5072044;28;20661;-92
2022/11/29 10:13:25;;;;;;;3.27;2.97;;;;;;;;;;5072145;28;20236;-91
2022/11/29 10:15:55;;;;;;;1.60;1.50;;;;;;;;;;5072414;28;20201;-91
2022/11/29 10:18:24;;;;;;;1.67;1.57;;;;;;;;;;5072393;28;20235;-92
2022/11/29 10:20:53;;;;;;;30.47;16.83;;;;;;;;;;5064397;28;20682;-92
2022/11/29 10:23:24;;;;;;;48.67;26.77;;;;;;;;;;5066078;28;20205;-91
2022/11/29 10:25:53;;;;;;;15.07;9.93;;;;;;;;;;5052345;28;20209;-92
2022/11/29 10:28:24;;;;;;;14.37;10.67;;;;;;;;;;5066015;28;20274;-92
2022/11/29 10:30:53;;;;;;;26.60;18.63;;;;;;;;;;5072239;28;20213;-92
2022/11/29 10:33:22;;;;;;;7.77;6.53;;;;;;;;;;5059947;28;20225;-92
2022/11/29 10:35:53;;;;;;;16.57;12.40;;;;;;;;;;5070886;28;20250;-90
2022/11/29 10:38:19;;;;;;;15.27;12.67;;;;;;;;;;5072103;28;20219;-91
2022/11/29 10:40:50;;;;;;;7.57;6.37;;;;;;;;;;5071920;28;20233;-92
2022/11/29 10:43:18;;;;;;;8.83;7.23;;;;;;;;;;5072237;28;20213;-92
2022/11/29 10:45:49;;;;;;;6.27;5.60;;;;;;;;;;5072028;28;20657;-92
2022/11/29 10:48:17;;;;;;;3.23;3.03;;;;;;;;;;5062410;28;20206;-93
2022/11/29 10:50:47;;;;;;;6.97;6.20;;;;;;;;;;5053741;28;20210;-92
2022/11/29 10:53:16;;;;;;;4.60;2.57;;;;;;;;;;5072185;28;20737;-92
2022/11/29 10:55:45;;;;;;;3.27;2.40;;;;;;;;;;5057475;28;20206;-92
2022/11/29 10:58:15;;;;;;;2.70;2.20;;;;;;;;;;5069607;28;20204;-91
2022/11/29 11:00:50;;;;;;;5.37;4.77;;;;;;;;;;5071982;28;20224;-92
2022/11/29 11:03:23;;;;;;;5.80;4.83;;;;;;;;;;5068508;28;20805;-91
2022/11/29 11:06:01;;;;;;;3.23;2.37;;;;;;;;;;5052046;28;20214;-92
2022/11/29 11:08:28;;;;;;;4.40;4.00;;;;;;;;;;5055955;28;20232;-93
2022/11/29 11:10:56;;;;;;;7.73;6.37;;;;;;;;;;5062064;28;20698;-92
2022/11/29 11:13:25;;;;;;;5.20;4.10;;;;;;;;;;5053398;28;20221;-92
2022/11/29 11:15:58;;;;;;;17.30;9.77;;;;;;;;;;5071539;28;20580;-93
2022/11/29 11:18:29;;;;;;;2.33;2.00;;;;;;;;;;5071355;28;20212;-92
2022/11/29 11:20:58;;;;;;;4.90;3.10;;;;;;;;;;5071705;28;20235;-92
2022/11/29 11:23:27;;;;;;;1.30;1.20;;;;;;;;;;5071781;28;20201;-91
2022/11/29 11:25:59;;;;;;;2.27;2.07;;;;;;;;;;5071947;28;20201;-92
2022/11/29 11:28:28;;;;;;;2.03;1.90;;;;;;;;;;5071701;28;20220;-93
2022/11/29 11:30:59;;;;;;;2.07;1.87;;;;;;;;;;5073070;28;20212;-92
2022/11/29 11:33:27;;;;;;;2.70;1.87;;;;;;;;;;5062268;28;20209;-92
2022/11/29 11:36:10;;;;;;;2.53;2.33;;;;;;;;;;5074942;28;20201;-92
2022/11/29 11:38:39;;;;;;;4.53;4.13;;;;;;;;;;5073214;28;20250;-93
2022/11/29 11:41:16;;;;;;;6.10;5.60;;;;;;;;;;5054972;28;20234;-92
2022/11/29 11:43:48;;;;;;;6.93;6.33;;;;;;;;;;5055364;28;20243;-91
2022/11/29 11:46:17;;;;;;;18.17;14.27;;;;;;;;;;5061967;28;20270;-92
2022/11/29 11:48:43;;;;;;;8.53;7.57;;;;;;;;;;5075162;28;20213;-92
2022/11/29 11:51:23;;;;;;;33.73;28.83;;;;;;;;;;5075097;28;20204;-93
2022/11/29 11:53:52;;;;;;;9.87;8.87;;;;;;;;;;5075140;28;20266;-93
2022/11/29 11:56:19;;;;;;;3.47;3.07;;;;;;;;;;5074697;28;20201;-92
2022/11/29 11:58:49;;;;;;;7.13;6.07;;;;;;;;;;5075483;28;20212;-91
2022/11/29 12:01:26;;;;;;;75.57;37.07;;;;;;;;;;5074496;28;20209;-93
2022/11/29 12:03:57;;;;;;;6.37;5.07;;;;;;;;;;5074751;28;20265;-92
2022/11/29 12:06:39;;;;;;;4.97;4.57;;;;;;;;;;5074192;28;20209;-92
2022/11/29 12:09:15;;;;;;;4.23;3.83;;;;;;;;;;5054828;28;20643;-94
2022/11/29 12:11:46;;;;;;;3.60;3.30;;;;;;;;;;5056912;28;20209;-92
2022/11/29 12:14:21;;;;;;;4.97;4.57;;;;;;;;;;5074308;28;20239;-92
2022/11/29 12:16:50;;;;;;;3.70;3.40;;;;;;;;;;5074744;28;20250;-91
2022/11/29 12:19:21;;;;;;;5.70;5.20;;;;;;;;;;5074453;28;20216;-90
2022/11/29 12:22:03;;;;;;;3.07;2.87;;;;;;;;;;5073969;28;20205;-91
2022/11/29 12:24:34;;;;;;;4.93;3.83;;;;;;;;;;5064948;28;20291;-91
2022/11/29 12:27:04;;;;;;;1.97;1.87;;;;;;;;;;5072684;28;20618;-92
2022/11/29 12:29:33;;;;;;;3.83;3.47;;;;;;;;;;5054317;28;20202;-92
2022/11/29 12:32:11;;;;;;;1.27;1.27;;;;;;;;;;5070132;28;20205;-91
2022/11/29 12:34:49;;;;;;;3.93;3.50;;;;;;;;;;5073930;28;20377;-90
2022/11/29 12:37:20;;;;;;;5.57;4.77;;;;;;;;;;5074602;28;20270;-91
2022/11/29 12:39:51;;;;;;;3.17;2.70;;;;;;;;;;5073908;28;20298;-90
2022/11/29 12:42:26;;;;;;;8.97;6.20;;;;;;;;;;5074475;28;20197;-91
2022/11/29 12:44:58;;;;;;;8.60;6.47;;;;;;;;;;5073741;28;20212;-91
2022/11/29 12:47:36;;;;;;;8.57;7.50;;;;;;;;;;5073729;28;20258;-89
2022/11/29 12:50:11;;;;;;;9.93;7.57;;;;;;;;;;5074475;28;20606;-90
2022/11/29 12:52:45;;;;;;;13.43;9.73;;;;;;;;;;5060289;28;20209;-89
2022/11/29 12:55:19;;;;;;;20.73;15.13;;;;;;;;;;5073836;28;20221;-90
2022/11/29 12:57:51;;;;;;;24.50;15.73;;;;;;;;;;5074630;28;20226;-91
2022/11/29 13:00:20;;;;;;;2.50;2.20;;;;;;;;;;5061071;28;20212;-90
2022/11/29 13:02:56;;;;;;;1.27;1.10;;;;;;;;;;5074776;28;20216;-90
2022/11/29 13:06:03;;;;;;;1.20;1.07;;;;;;;;;;5074008;28;20204;-90
2022/11/29 13:08:46;;;;;;;1.40;1.30;;;;;;;;;;5074473;28;20214;-91
2022/11/29 13:11:17;;;;;;;2.20;1.37;;;;;;;;;;5074394;28;20668;-90
2022/11/29 13:13:46;;;;;;;0.60;0.60;;;;;;;;;;5073578;28;20680;-89
2022/11/29 13:16:27;;;;;;;0.77;0.77;;;;;;;;;;5073142;28;20205;-91
2022/11/29 13:19:00;;;;;;;0.90;0.90;;;;;;;;;;5072935;28;20220;-90
2022/11/29 13:21:32;;;;;;;1.30;0.90;;;;;;;;;;5073056;28;20243;-90
2022/11/29 13:24:04;;;;;;;7.80;6.10;;;;;;;;;;5073152;28;20217;-90
2022/11/29 13:26:31;;;;;;;3.53;2.60;;;;;;;;;;5072949;28;20215;-89
2022/11/29 13:28:59;;;;;;;0.77;0.77;;;;;;;;;;5054255;28;20210;-90
2022/11/29 13:31:26;;;;;;;0.90;0.90;;;;;;;;;;5063563;28;20205;-90
2022/11/29 13:33:58;;;;;;;3.17;2.87;;;;;;;;;;5070089;28;20210;-90
2022/11/29 13:36:33;;;;;;;7.80;6.47;;;;;;;;;;5062595;28;20706;-89
2022/11/29 13:39:10;;;;;;;3.17;2.53;;;;;;;;;;5055743;28;20209;-89
2022/11/29 13:41:41;;;;;;;3.67;3.37;;;;;;;;;;5063643;28;20216;-89
2022/11/29 13:44:12;;;;;;;2.83;2.50;;;;;;;;;;5073200;28;20209;-89
2022/11/29 13:46:46;;;;;;;31.53;21.47;;;;;;;;;;5072868;28;20213;-88
2022/11/29 13:49:22;;;;;;;6.90;6.07;;;;;;;;;;5069131;28;20660;-89
2022/11/29 13:52:04;;;;;;;1.17;1.17;;;;;;;;;;5052450;28;20228;-89
2022/11/29 13:54:32;;;;;;;0.43;0.43;;;;;;;;;;5065889;28;20230;-89
2022/11/29 13:57:03;;;;;;;1.27;1.17;;;;;;;;;;5063817;28;20649;-89
2022/11/29 13:59:31;;;;;;;1.60;1.50;;;;;;;;;;5072030;28;20205;-89
2022/11/29 14:01:58;;;;;;;2.10;1.90;;;;;;;;;;5059073;28;20280;-89
2022/11/29 14:04:47;;;;;;;3.70;2.30;;;;;;;;;;5072430;28;20212;-89
2022/11/29 14:07:18;;;;;;;1.30;1.20;;;;;;;;;;5072789;28;20205;-90
2022/11/29 14:09:48;;;;;;;1.10;1.10;;;;;;;;;;5071975;28;20235;-90
2022/11/29 14:12:26;;;;;;;1.43;1.33;;;;;;;;;;5072266;28;20212;-90
2022/11/29 14:14:55;;;;;;;0.77;0.77;;;;;;;;;;5072228;28;20711;-89
2022/11/29 14:17:34;;;;;;;1.73;1.63;;;;;;;;;;5072334;28;20212;-90
2022/11/29 14:20:49;;;;;;;3.03;2.83;;;;;;;;;;5071111;28;20212;-89
2022/11/29 14:23:32;;;;;;;1.30;1.20;;;;;;;;;;5065867;28;20212;-87
2022/11/29 14:26:27;;;;;;;2.03;1.60;;;;;;;;;;5072150;28;20212;-90
2022/11/29 14:28:55;;;;;;;2.27;2.10;;;;;;;;;;5054231;28;20217;-89
2022/11/29 14:31:47;;;;;;;12.97;9.30;;;;;;;;;;5061591;28;20288;-89
2022/11/29 14:34:16;;;;;;;3.53;3.23;;;;;;;;;;5058063;28;20205;-90
2022/11/29 14:36:50;;;;;;;2.30;2.10;;;;;;;;;;5071863;28;20286;-88
2022/11/29 14:39:42;;;;;;;4.07;3.80;;;;;;;;;;5052500;28;20635;-91
2022/11/29 14:42:17;;;;;;;21.27;16.03;;;;;;;;;;5052306;28;20205;-91
2022/11/29 14:44:45;;;;;;;24.57;16.07;;;;;;;;;;5060360;28;20204;-89
2022/11/29 14:47:20;;;;;;;8.73;5.67;;;;;;;;;;5071485;28;20204;-90
2022/11/29 14:49:47;;;;;;;1.70;1.60;;;;;;;;;;5059937;28;20208;-89
2022/11/29 14:52:20;;;;;;;2.47;2.03;;;;;;;;;;5071641;28;20212;-89
2022/11/29 14:55:01;;;;;;;1.37;1.27;;;;;;;;;;5052197;28;20226;-89
2022/11/29 14:58:04;;;;;;;3.57;2.97;;;;;;;;;;5063300;28;20667;-90
2022/11/29 15:01:00;;;;;;;9.97;5.87;;;;;;;;;;5060028;28;20216;-90
2022/11/29 15:03:35;;;;;;;15.67;11.80;;;;;;;;;;5065331;28;20292;-90
2022/11/29 15:06:09;;;;;;;18.87;14.43;;;;;;;;;;5073133;28;20580;-89
2022/11/29 15:08:40;;;;;;;6.10;4.70;;;;;;;;;;5075702;28;20204;-90
2022/11/29 15:11:17;;;;;;;31.63;20.37;;;;;;;;;;5063773;28;20595;-90
2022/11/29 15:13:50;;;;;;;5.50;4.83;;;;;;;;;;5060993;28;20204;-90
2022/11/29 15:16:29;;;;;;;4.87;3.93;;;;;;;;;;5062107;28;20232;-91
2022/11/29 15:19:23;;;;;;;4.23;3.93;;;;;;;;;;5066518;28;20665;-93
2022/11/29 15:21:56;;;;;;;5.33;4.83;;;;;;;;;;5078544;28;20732;-96
2022/11/29 15:24:28;;;;;;;1.83;1.73;;;;;;;;;;5075431;28;20193;-94
2022/11/29 15:26:57;;;;;;;1.50;1.40;;;;;;;;;;5070695;28;20283;-91
2022/11/29 15:29:25;;;;;;;1.40;1.30;;;;;;;;;;5062183;28;20204;-92
2022/11/29 15:31:54;;;;;;;1.50;1.40;;;;;;;;;;5072077;28;20268;-92
2022/11/29 15:34:23;;;;;;;2.17;1.70;;;;;;;;;;5055372;28;20271;-93
2022/11/29 15:36:50;;;;;;;1.47;1.37;;;;;;;;;;5071091;28;20212;-94
2022/11/29 15:39:32;;;;;;;0.80;0.80;;;;;;;;;;5072095;28;20205;-93
2022/11/29 15:42:02;;;;;;;1.47;1.30;;;;;;;;;;5055971;28;20213;-96
2022/11/29 15:44:31;;;;;;;1.40;1.30;;;;;;;;;;5058656;28;20210;-96
2022/11/29 15:47:16;;;;;;;11.97;8.33;;;;;;;;;;5070802;28;20216;-95
2022/11/29 15:49:46;;;;;;;9.80;6.80;;;;;;;;;;5064714;28;20213;-92
2022/11/29 15:52:18;;;;;;;5.40;4.43;;;;;;;;;;5071511;28;20212;-92